sensor_id;sensor_type;location;lat;lon;timestamp;temperature;humidity
8132;DHT22;4107;49.212;9.198;2022-07-01T00:01:21;16.70;99.90
8132;DHT22;4107;49.212;9.198;2022-07-01T00:03:47;16.70;99.90
8132;DHT22;4107;49.212;9.198;2022-07-01T00:06:17;16.60;99.90
8132;DHT22;4107;49.212;9.198;2022-07-01T00:08:43;16.60;99.90
8132;DHT22;4107;49.212;9.198;2022-07-01T00:11:09;16.60;99.90
8132;DHT22;4107;49.212;9.198;2022-07-01T00:13:35;16.50;99.90
8132;DHT22;4107;49.212;9.198;2022-07-01T00:16:01;16.50;99.90
8132;DHT22;4107;49.212;9.198;2022-07-01T00:18:26;16.30;99.90
8132;DHT22;4107;49.212;9.198;2022-07-01T00:20:52;16.30;99.90
8132;DHT22;4107;49.212;9.198;2022-07-01T00:23:18;16.30;99.90
8132;DHT22;4107;49.212;9.198;2022-07-01T00:25:44;16.40;99.90
8132;DHT22;4107;49.212;9.198;2022-07-01T00:28:10;16.30;99.90
8132;DHT22;4107;49.212;9.198;2022-07-01T00:30:36;16.30;99.90
8132;DHT22;4107;49.212;9.198;2022-07-01T00:33:03;16.20;99.90
8132;DHT22;4107;49.212;9.198;2022-07-01T00:35:28;16.20;99.90
8132;DHT22;4107;49.212;9.198;2022-07-01T00:37:54;16.20;99.90
8132;DHT22;4107;49.212;9.198;2022-07-01T00:40:20;16.20;99.90
8132;DHT22;4107;49.212;9.198;2022-07-01T00:42:46;16.20;99.90
8132;DHT22;4107;49.212;9.198;2022-07-01T00:45:13;16.20;99.90
8132;DHT22;4107;49.212;9.198;2022-07-01T00:47:40;16.20;99.90
8132;DHT22;4107;49.212;9.198;2022-07-01T00:50:11;16.20;99.90
8132;DHT22;4107;49.212;9.198;2022-07-01T00:52:38;16.10;99.90
8132;DHT22;4107;49.212;9.198;2022-07-01T00:55:06;16.10;99.90
8132;DHT22;4107;49.212;9.198;2022-07-01T00:57:35;16.10;99.90
8132;DHT22;4107;49.212;9.198;2022-07-01T01:00:04;16.10;99.90
8132;DHT22;4107;49.212;9.198;2022-07-01T01:02:30;16.20;99.90
8132;DHT22;4107;49.212;9.198;2022-07-01T01:04:56;16.10;99.90
8132;DHT22;4107;49.212;9.198;2022-07-01T01:07:22;16.10;99.90
8132;DHT22;4107;49.212;9.198;2022-07-01T01:09:47;16.10;99.90
8132;DHT22;4107;49.212;9.198;2022-07-01T01:12:14;16.10;99.90
8132;DHT22;4107;49.212;9.198;2022-07-01T01:14:48;16.10;99.90
8132;DHT22;4107;49.212;9.198;2022-07-01T01:17:15;16.10;99.90
8132;DHT22;4107;49.212;9.198;2022-07-01T01:19:41;16.10;99.90
8132;DHT22;4107;49.212;9.198;2022-07-01T01:22:08;16.00;99.90
8132;DHT22;4107;49.212;9.198;2022-07-01T01:24:35;16.00;99.90
8132;DHT22;4107;49.212;9.198;2022-07-01T01:27:02;16.00;99.90
8132;DHT22;4107;49.212;9.198;2022-07-01T01:29:28;16.00;99.90
8132;DHT22;4107;49.212;9.198;2022-07-01T01:31:53;15.80;99.90
8132;DHT22;4107;49.212;9.198;2022-07-01T01:34:19;15.80;99.90
8132;DHT22;4107;49.212;9.198;2022-07-01T01:36:44;15.80;99.90
8132;DHT22;4107;49.212;9.198;2022-07-01T01:39:10;15.70;99.90
8132;DHT22;4107;49.212;9.198;2022-07-01T01:41:39;15.70;99.90
8132;DHT22;4107;49.212;9.198;2022-07-01T01:44:04;15.70;99.90
8132;DHT22;4107;49.212;9.198;2022-07-01T01:46:30;15.60;99.90
8132;DHT22;4107;49.212;9.198;2022-07-01T01:48:57;15.60;99.90
8132;DHT22;4107;49.212;9.198;2022-07-01T01:51:23;15.50;99.90
8132;DHT22;4107;49.212;9.198;2022-07-01T01:53:48;15.50;99.90
8132;DHT22;4107;49.212;9.198;2022-07-01T01:56:14;15.40;99.90
8132;DHT22;4107;49.212;9.198;2022-07-01T01:58:40;15.40;99.90
8132;DHT22;4107;49.212;9.198;2022-07-01T02:01:11;15.50;99.90
8132;DHT22;4107;49.212;9.198;2022-07-01T02:03:38;15.50;99.90
8132;DHT22;4107;49.212;9.198;2022-07-01T02:06:05;15.50;99.90
8132;DHT22;4107;49.212;9.198;2022-07-01T02:08:31;15.50;99.90
8132;DHT22;4107;49.212;9.198;2022-07-01T02:10:57;15.50;99.90
8132;DHT22;4107;49.212;9.198;2022-07-01T02:13:23;15.60;99.90
8132;DHT22;4107;49.212;9.198;2022-07-01T02:15:49;15.60;99.90
8132;DHT22;4107;49.212;9.198;2022-07-01T02:18:15;15.60;99.90
8132;DHT22;4107;49.212;9.198;2022-07-01T02:20:41;15.40;99.90
8132;DHT22;4107;49.212;9.198;2022-07-01T02:23:08;15.50;99.90
8132;DHT22;4107;49.212;9.198;2022-07-01T02:25:34;15.50;99.90
8132;DHT22;4107;49.212;9.198;2022-07-01T02:27:59;15.60;99.90
8132;DHT22;4107;49.212;9.198;2022-07-01T02:30:26;15.60;99.90
8132;DHT22;4107;49.212;9.198;2022-07-01T02:32:52;15.70;99.90
8132;DHT22;4107;49.212;9.198;2022-07-01T02:35:18;15.70;99.90
8132;DHT22;4107;49.212;9.198;2022-07-01T02:37:43;15.80;99.90
8132;DHT22;4107;49.212;9.198;2022-07-01T02:40:09;15.70;99.90
8132;DHT22;4107;49.212;9.198;2022-07-01T02:42:35;15.60;99.90
8132;DHT22;4107;49.212;9.198;2022-07-01T02:45:02;15.50;99.90
8132;DHT22;4107;49.212;9.198;2022-07-01T02:47:39;15.40;99.90
8132;DHT22;4107;49.212;9.198;2022-07-01T02:50:09;15.40;99.90
8132;DHT22;4107;49.212;9.198;2022-07-01T02:52:37;15.30;99.90
8132;DHT22;4107;49.212;9.198;2022-07-01T02:55:04;15.40;99.90
8132;DHT22;4107;49.212;9.198;2022-07-01T02:57:30;15.40;99.90
8132;DHT22;4107;49.212;9.198;2022-07-01T02:59:56;15.30;99.90
8132;DHT22;4107;49.212;9.198;2022-07-01T03:02:22;15.40;99.90
8132;DHT22;4107;49.212;9.198;2022-07-01T03:04:49;15.30;99.90
8132;DHT22;4107;49.212;9.198;2022-07-01T03:07:16;15.30;99.90
8132;DHT22;4107;49.212;9.198;2022-07-01T03:09:42;15.30;99.90
8132;DHT22;4107;49.212;9.198;2022-07-01T03:12:09;15.20;99.90
8132;DHT22;4107;49.212;9.198;2022-07-01T03:14:51;15.30;99.90
8132;DHT22;4107;49.212;9.198;2022-07-01T03:17:18;15.40;99.90
8132;DHT22;4107;49.212;9.198;2022-07-01T03:19:44;15.50;99.90
8132;DHT22;4107;49.212;9.198;2022-07-01T03:22:10;15.60;99.90
8132;DHT22;4107;49.212;9.198;2022-07-01T03:24:35;15.60;99.90
8132;DHT22;4107;49.212;9.198;2022-07-01T03:27:01;15.70;99.90
8132;DHT22;4107;49.212;9.198;2022-07-01T03:29:27;15.70;99.90
8132;DHT22;4107;49.212;9.198;2022-07-01T03:31:52;15.70;99.90
8132;DHT22;4107;49.212;9.198;2022-07-01T03:34:18;15.70;99.90
8132;DHT22;4107;49.212;9.198;2022-07-01T03:36:43;15.80;99.90
8132;DHT22;4107;49.212;9.198;2022-07-01T03:39:09;15.80;99.90
8132;DHT22;4107;49.212;9.198;2022-07-01T03:41:34;15.90;99.90
8132;DHT22;4107;49.212;9.198;2022-07-01T03:44:00;15.90;99.90
8132;DHT22;4107;49.212;9.198;2022-07-01T03:46:26;15.90;99.90
8132;DHT22;4107;49.212;9.198;2022-07-01T03:48:51;15.90;99.90
8132;DHT22;4107;49.212;9.198;2022-07-01T03:51:17;15.90;99.90
8132;DHT22;4107;49.212;9.198;2022-07-01T03:57:06;15.90;99.90
8132;DHT22;4107;49.212;9.198;2022-07-01T03:59:35;15.90;99.90
8132;DHT22;4107;49.212;9.198;2022-07-01T04:02:03;15.90;99.90
8132;DHT22;4107;49.212;9.198;2022-07-01T04:04:29;15.90;99.90
8132;DHT22;4107;49.212;9.198;2022-07-01T04:06:57;15.90;99.90
8132;DHT22;4107;49.212;9.198;2022-07-01T04:09:24;16.00;99.90
8132;DHT22;4107;49.212;9.198;2022-07-01T04:11:50;16.00;99.90
8132;DHT22;4107;49.212;9.198;2022-07-01T04:14:16;16.10;99.90
8132;DHT22;4107;49.212;9.198;2022-07-01T04:16:44;16.20;99.90
8132;DHT22;4107;49.212;9.198;2022-07-01T04:19:09;16.30;99.90
8132;DHT22;4107;49.212;9.198;2022-07-01T04:21:36;16.40;99.90
8132;DHT22;4107;49.212;9.198;2022-07-01T04:24:20;16.40;99.90
8132;DHT22;4107;49.212;9.198;2022-07-01T04:26:48;16.60;99.90
8132;DHT22;4107;49.212;9.198;2022-07-01T04:29:14;16.60;99.90
8132;DHT22;4107;49.212;9.198;2022-07-01T04:31:40;16.60;99.90
8132;DHT22;4107;49.212;9.198;2022-07-01T04:34:06;16.70;99.90
8132;DHT22;4107;49.212;9.198;2022-07-01T04:36:32;16.60;99.90
8132;DHT22;4107;49.212;9.198;2022-07-01T04:38:58;16.70;99.90
8132;DHT22;4107;49.212;9.198;2022-07-01T04:41:24;16.50;99.90
8132;DHT22;4107;49.212;9.198;2022-07-01T04:44:08;16.70;99.90
8132;DHT22;4107;49.212;9.198;2022-07-01T04:46:34;16.80;99.90
8132;DHT22;4107;49.212;9.198;2022-07-01T04:49:00;16.80;99.90
8132;DHT22;4107;49.212;9.198;2022-07-01T04:51:26;16.70;99.90
8132;DHT22;4107;49.212;9.198;2022-07-01T04:53:52;16.70;99.90
8132;DHT22;4107;49.212;9.198;2022-07-01T04:56:18;16.90;99.90
8132;DHT22;4107;49.212;9.198;2022-07-01T04:58:43;17.00;99.90
8132;DHT22;4107;49.212;9.198;2022-07-01T05:01:09;17.00;99.90
8132;DHT22;4107;49.212;9.198;2022-07-01T05:03:35;17.00;99.90
8132;DHT22;4107;49.212;9.198;2022-07-01T05:06:00;17.00;99.90
8132;DHT22;4107;49.212;9.198;2022-07-01T05:08:26;17.00;99.90
8132;DHT22;4107;49.212;9.198;2022-07-01T05:10:51;16.90;99.90
8132;DHT22;4107;49.212;9.198;2022-07-01T05:13:29;16.80;99.90
8132;DHT22;4107;49.212;9.198;2022-07-01T05:15:55;16.80;99.90
8132;DHT22;4107;49.212;9.198;2022-07-01T05:18:21;16.80;99.90
8132;DHT22;4107;49.212;9.198;2022-07-01T05:21:23;16.80;99.90
8132;DHT22;4107;49.212;9.198;2022-07-01T05:24:08;16.70;99.90
8132;DHT22;4107;49.212;9.198;2022-07-01T05:26:33;16.70;99.90
8132;DHT22;4107;49.212;9.198;2022-07-01T05:28:59;16.70;99.90
8132;DHT22;4107;49.212;9.198;2022-07-01T05:31:25;16.70;99.90
8132;DHT22;4107;49.212;9.198;2022-07-01T05:33:51;16.70;99.90
8132;DHT22;4107;49.212;9.198;2022-07-01T05:36:24;16.70;99.90
8132;DHT22;4107;49.212;9.198;2022-07-01T05:38:49;16.70;99.90
8132;DHT22;4107;49.212;9.198;2022-07-01T05:41:15;16.80;99.90
8132;DHT22;4107;49.212;9.198;2022-07-01T05:43:41;16.70;99.90
8132;DHT22;4107;49.212;9.198;2022-07-01T05:46:07;16.80;99.90
8132;DHT22;4107;49.212;9.198;2022-07-01T05:48:33;16.70;99.90
8132;DHT22;4107;49.212;9.198;2022-07-01T05:51:19;16.70;99.90
8132;DHT22;4107;49.212;9.198;2022-07-01T05:53:45;16.60;99.90
8132;DHT22;4107;49.212;9.198;2022-07-01T05:56:12;16.60;99.90
8132;DHT22;4107;49.212;9.198;2022-07-01T05:58:38;16.60;99.90
8132;DHT22;4107;49.212;9.198;2022-07-01T06:01:13;16.60;99.90
8132;DHT22;4107;49.212;9.198;2022-07-01T06:03:38;16.60;99.90
8132;DHT22;4107;49.212;9.198;2022-07-01T06:06:04;16.60;99.90
8132;DHT22;4107;49.212;9.198;2022-07-01T06:08:30;16.60;99.90
8132;DHT22;4107;49.212;9.198;2022-07-01T06:10:56;16.70;99.90
8132;DHT22;4107;49.212;9.198;2022-07-01T06:13:34;16.70;99.90
8132;DHT22;4107;49.212;9.198;2022-07-01T06:16:00;16.60;99.90
8132;DHT22;4107;49.212;9.198;2022-07-01T06:18:26;16.60;99.90
8132;DHT22;4107;49.212;9.198;2022-07-01T06:20:51;16.60;99.90
8132;DHT22;4107;49.212;9.198;2022-07-01T06:23:17;16.60;99.90
8132;DHT22;4107;49.212;9.198;2022-07-01T06:25:42;16.60;99.90
8132;DHT22;4107;49.212;9.198;2022-07-01T06:28:16;16.40;99.90
8132;DHT22;4107;49.212;9.198;2022-07-01T06:30:42;16.50;99.90
8132;DHT22;4107;49.212;9.198;2022-07-01T06:33:10;16.50;99.90
8132;DHT22;4107;49.212;9.198;2022-07-01T06:35:35;16.50;99.90
8132;DHT22;4107;49.212;9.198;2022-07-01T06:38:01;16.40;99.90
8132;DHT22;4107;49.212;9.198;2022-07-01T06:40:30;16.30;99.90
8132;DHT22;4107;49.212;9.198;2022-07-01T06:43:04;16.30;99.90
8132;DHT22;4107;49.212;9.198;2022-07-01T06:45:30;16.30;99.90
8132;DHT22;4107;49.212;9.198;2022-07-01T06:47:56;16.30;99.90
8132;DHT22;4107;49.212;9.198;2022-07-01T06:50:22;16.20;99.90
8132;DHT22;4107;49.212;9.198;2022-07-01T06:52:47;16.20;99.90
8132;DHT22;4107;49.212;9.198;2022-07-01T06:55:13;16.20;99.90
8132;DHT22;4107;49.212;9.198;2022-07-01T06:57:41;16.10;99.90
8132;DHT22;4107;49.212;9.198;2022-07-01T07:00:08;16.10;99.90
8132;DHT22;4107;49.212;9.198;2022-07-01T07:02:33;16.10;99.90
8132;DHT22;4107;49.212;9.198;2022-07-01T07:04:59;16.20;99.90
8132;DHT22;4107;49.212;9.198;2022-07-01T07:07:25;16.20;99.90
8132;DHT22;4107;49.212;9.198;2022-07-01T07:09:54;16.10;99.90
8132;DHT22;4107;49.212;9.198;2022-07-01T07:12:21;16.10;99.90
8132;DHT22;4107;49.212;9.198;2022-07-01T07:14:46;16.10;99.90
8132;DHT22;4107;49.212;9.198;2022-07-01T07:17:12;16.00;99.90
8132;DHT22;4107;49.212;9.198;2022-07-01T07:19:38;16.10;99.90
8132;DHT22;4107;49.212;9.198;2022-07-01T07:22:03;16.10;99.90
8132;DHT22;4107;49.212;9.198;2022-07-01T07:24:32;16.10;99.90
8132;DHT22;4107;49.212;9.198;2022-07-01T07:26:58;16.00;99.90
8132;DHT22;4107;49.212;9.198;2022-07-01T07:29:23;16.00;99.90
8132;DHT22;4107;49.212;9.198;2022-07-01T07:31:49;16.00;99.90
8132;DHT22;4107;49.212;9.198;2022-07-01T07:34:14;16.00;99.90
8132;DHT22;4107;49.212;9.198;2022-07-01T07:36:40;16.10;99.90
8132;DHT22;4107;49.212;9.198;2022-07-01T07:39:06;16.10;99.90
8132;DHT22;4107;49.212;9.198;2022-07-01T07:41:37;16.20;99.90
8132;DHT22;4107;49.212;9.198;2022-07-01T07:44:04;16.10;99.90
8132;DHT22;4107;49.212;9.198;2022-07-01T07:46:30;16.20;99.90
8132;DHT22;4107;49.212;9.198;2022-07-01T07:48:55;16.30;99.90
8132;DHT22;4107;49.212;9.198;2022-07-01T07:51:41;16.30;99.90
8132;DHT22;4107;49.212;9.198;2022-07-01T07:54:07;16.50;99.90
8132;DHT22;4107;49.212;9.198;2022-07-01T07:56:33;16.60;99.90
8132;DHT22;4107;49.212;9.198;2022-07-01T07:58:58;16.60;99.90
8132;DHT22;4107;49.212;9.198;2022-07-01T08:01:24;16.70;99.90
8132;DHT22;4107;49.212;9.198;2022-07-01T08:03:59;16.60;99.90
8132;DHT22;4107;49.212;9.198;2022-07-01T08:06:25;16.70;99.90
8132;DHT22;4107;49.212;9.198;2022-07-01T08:08:51;16.70;99.90
8132;DHT22;4107;49.212;9.198;2022-07-01T08:11:16;16.70;99.90
8132;DHT22;4107;49.212;9.198;2022-07-01T08:13:43;16.70;99.90
8132;DHT22;4107;49.212;9.198;2022-07-01T08:16:21;16.80;99.90
8132;DHT22;4107;49.212;9.198;2022-07-01T08:18:46;16.90;99.90
8132;DHT22;4107;49.212;9.198;2022-07-01T08:21:12;16.90;99.90
8132;DHT22;4107;49.212;9.198;2022-07-01T08:23:37;17.10;99.90
8132;DHT22;4107;49.212;9.198;2022-07-01T08:26:03;16.90;99.90
8132;DHT22;4107;49.212;9.198;2022-07-01T08:28:29;16.90;99.90
8132;DHT22;4107;49.212;9.198;2022-07-01T08:31:01;16.90;99.90
8132;DHT22;4107;49.212;9.198;2022-07-01T08:33:27;16.90;99.90
8132;DHT22;4107;49.212;9.198;2022-07-01T08:35:53;16.80;99.90
8132;DHT22;4107;49.212;9.198;2022-07-01T08:38:18;17.10;99.90
8132;DHT22;4107;49.212;9.198;2022-07-01T08:40:44;16.70;99.90
8132;DHT22;4107;49.212;9.198;2022-07-01T08:43:31;16.70;99.90
8132;DHT22;4107;49.212;9.198;2022-07-01T08:45:59;16.60;99.90
8132;DHT22;4107;49.212;9.198;2022-07-01T08:48:27;16.40;99.90
8132;DHT22;4107;49.212;9.198;2022-07-01T08:50:52;16.60;99.90
8132;DHT22;4107;49.212;9.198;2022-07-01T08:53:18;16.60;99.90
8132;DHT22;4107;49.212;9.198;2022-07-01T08:55:47;16.60;99.90
8132;DHT22;4107;49.212;9.198;2022-07-01T08:58:32;16.70;99.90
8132;DHT22;4107;49.212;9.198;2022-07-01T09:01:26;16.70;99.90
8132;DHT22;4107;49.212;9.198;2022-07-01T09:03:54;16.70;99.90
8132;DHT22;4107;49.212;9.198;2022-07-01T09:06:26;16.80;99.90
8132;DHT22;4107;49.212;9.198;2022-07-01T09:08:53;16.80;99.90
8132;DHT22;4107;49.212;9.198;2022-07-01T09:11:23;16.90;99.90
8132;DHT22;4107;49.212;9.198;2022-07-01T09:14:09;16.90;99.90
8132;DHT22;4107;49.212;9.198;2022-07-01T09:16:46;16.90;99.90
8132;DHT22;4107;49.212;9.198;2022-07-01T09:19:29;16.90;99.90
8132;DHT22;4107;49.212;9.198;2022-07-01T09:21:56;16.90;99.90
8132;DHT22;4107;49.212;9.198;2022-07-01T09:26:58;16.70;99.90
8132;DHT22;4107;49.212;9.198;2022-07-01T09:29:41;16.80;99.90
8132;DHT22;4107;49.212;9.198;2022-07-01T09:32:10;16.80;99.90
8132;DHT22;4107;49.212;9.198;2022-07-01T09:37:06;16.80;99.90
8132;DHT22;4107;49.212;9.198;2022-07-01T09:39:51;16.80;99.90
8132;DHT22;4107;49.212;9.198;2022-07-01T09:42:20;16.90;99.90
8132;DHT22;4107;49.212;9.198;2022-07-01T09:44:59;17.00;99.90
8132;DHT22;4107;49.212;9.198;2022-07-01T09:47:44;17.10;99.90
8132;DHT22;4107;49.212;9.198;2022-07-01T09:50:10;17.20;99.90
8132;DHT22;4107;49.212;9.198;2022-07-01T09:52:35;17.20;99.90
8132;DHT22;4107;49.212;9.198;2022-07-01T09:55:02;17.20;99.90
8132;DHT22;4107;49.212;9.198;2022-07-01T09:57:28;17.30;99.90
8132;DHT22;4107;49.212;9.198;2022-07-01T10:00:03;17.30;99.90
8132;DHT22;4107;49.212;9.198;2022-07-01T10:02:30;17.30;99.90
8132;DHT22;4107;49.212;9.198;2022-07-01T10:05:02;17.40;99.90
8132;DHT22;4107;49.212;9.198;2022-07-01T10:12:55;17.60;99.90
8132;DHT22;4107;49.212;9.198;2022-07-01T10:15:21;17.80;99.90
8132;DHT22;4107;49.212;9.198;2022-07-01T10:18:01;17.80;99.90
8132;DHT22;4107;49.212;9.198;2022-07-01T10:20:29;17.90;99.90
8132;DHT22;4107;49.212;9.198;2022-07-01T10:23:05;18.00;99.90
8132;DHT22;4107;49.212;9.198;2022-07-01T10:25:44;17.90;99.90
8132;DHT22;4107;49.212;9.198;2022-07-01T10:28:27;18.00;99.90
8132;DHT22;4107;49.212;9.198;2022-07-01T10:31:02;18.00;99.90
8132;DHT22;4107;49.212;9.198;2022-07-01T10:33:33;18.00;99.90
8132;DHT22;4107;49.212;9.198;2022-07-01T10:36:25;18.00;99.90
8132;DHT22;4107;49.212;9.198;2022-07-01T10:44:14;18.10;99.90
8132;DHT22;4107;49.212;9.198;2022-07-01T10:46:44;18.20;99.90
8132;DHT22;4107;49.212;9.198;2022-07-01T10:57:27;19.30;99.90
8132;DHT22;4107;49.212;9.198;2022-07-01T11:07:46;19.80;99.90
8132;DHT22;4107;49.212;9.198;2022-07-01T11:10:14;20.20;99.90
8132;DHT22;4107;49.212;9.198;2022-07-01T11:12:41;19.80;99.90
8132;DHT22;4107;49.212;9.198;2022-07-01T11:15:09;19.80;99.90
8132;DHT22;4107;49.212;9.198;2022-07-01T11:17:46;19.90;99.90
8132;DHT22;4107;49.212;9.198;2022-07-01T11:20:12;20.20;99.90
8132;DHT22;4107;49.212;9.198;2022-07-01T11:22:44;20.20;99.90
8132;DHT22;4107;49.212;9.198;2022-07-01T11:25:11;20.30;99.90
8132;DHT22;4107;49.212;9.198;2022-07-01T11:30:10;20.70;99.90
8132;DHT22;4107;49.212;9.198;2022-07-01T11:32:45;20.90;99.90
8132;DHT22;4107;49.212;9.198;2022-07-01T11:35:20;21.00;99.90
8132;DHT22;4107;49.212;9.198;2022-07-01T11:38:13;20.90;99.90
8132;DHT22;4107;49.212;9.198;2022-07-01T11:41:00;20.90;99.90
8132;DHT22;4107;49.212;9.198;2022-07-01T11:43:38;20.90;99.90
8132;DHT22;4107;49.212;9.198;2022-07-01T11:46:05;21.30;99.90
8132;DHT22;4107;49.212;9.198;2022-07-01T11:51:07;21.70;99.90
8132;DHT22;4107;49.212;9.198;2022-07-01T11:53:33;22.00;99.90
8132;DHT22;4107;49.212;9.198;2022-07-01T11:56:02;22.20;98.80
8132;DHT22;4107;49.212;9.198;2022-07-01T11:58:51;22.40;99.50
8132;DHT22;4107;49.212;9.198;2022-07-01T12:01:28;22.60;99.00
8132;DHT22;4107;49.212;9.198;2022-07-01T12:03:56;22.50;98.30
8132;DHT22;4107;49.212;9.198;2022-07-01T12:06:22;22.30;98.50
8132;DHT22;4107;49.212;9.198;2022-07-01T12:08:50;22.10;99.00
8132;DHT22;4107;49.212;9.198;2022-07-01T12:11:17;21.90;98.70
8132;DHT22;4107;49.212;9.198;2022-07-01T12:13:44;21.80;98.90
8132;DHT22;4107;49.212;9.198;2022-07-01T12:16:20;21.80;99.00
8132;DHT22;4107;49.212;9.198;2022-07-01T12:18:56;22.00;99.10
8132;DHT22;4107;49.212;9.198;2022-07-01T12:21:22;22.30;99.30
8132;DHT22;4107;49.212;9.198;2022-07-01T12:24:11;22.60;99.30
8132;DHT22;4107;49.212;9.198;2022-07-01T12:29:26;23.00;97.70
8132;DHT22;4107;49.212;9.198;2022-07-01T12:32:02;23.00;99.90
8132;DHT22;4107;49.212;9.198;2022-07-01T12:34:49;23.10;99.90
8132;DHT22;4107;49.212;9.198;2022-07-01T12:37:18;23.10;99.90
8132;DHT22;4107;49.212;9.198;2022-07-01T12:42:37;23.20;99.90
8132;DHT22;4107;49.212;9.198;2022-07-01T12:50:26;23.50;99.90
8132;DHT22;4107;49.212;9.198;2022-07-01T12:53:28;23.50;99.90
8132;DHT22;4107;49.212;9.198;2022-07-01T12:55:56;23.10;99.90
8132;DHT22;4107;49.212;9.198;2022-07-01T12:58:24;23.40;99.90
8132;DHT22;4107;49.212;9.198;2022-07-01T13:00:56;23.50;99.90
8132;DHT22;4107;49.212;9.198;2022-07-01T13:03:27;23.80;94.60
8132;DHT22;4107;49.212;9.198;2022-07-01T13:05:54;23.90;94.80
8132;DHT22;4107;49.212;9.198;2022-07-01T13:08:20;23.90;93.40
8132;DHT22;4107;49.212;9.198;2022-07-01T13:10:49;23.90;93.70
8132;DHT22;4107;49.212;9.198;2022-07-01T13:13:16;23.80;94.20
8132;DHT22;4107;49.212;9.198;2022-07-01T13:15:45;23.80;94.40
8132;DHT22;4107;49.212;9.198;2022-07-01T13:18:14;23.90;94.10
8132;DHT22;4107;49.212;9.198;2022-07-01T13:20:40;24.00;93.10
8132;DHT22;4107;49.212;9.198;2022-07-01T17:25:52;23.00;99.90
8132;DHT22;4107;49.212;9.198;2022-07-01T17:33:24;22.80;93.60
8132;DHT22;4107;49.212;9.198;2022-07-01T17:35:52;22.60;93.60
8132;DHT22;4107;49.212;9.198;2022-07-01T17:38:44;22.70;94.00
8132;DHT22;4107;49.212;9.198;2022-07-01T17:41:13;22.90;93.70
8132;DHT22;4107;49.212;9.198;2022-07-01T17:43:42;23.00;92.90
8132;DHT22;4107;49.212;9.198;2022-07-01T17:46:10;23.00;92.40
8132;DHT22;4107;49.212;9.198;2022-07-01T17:48:38;23.00;92.10
8132;DHT22;4107;49.212;9.198;2022-07-01T17:51:05;23.00;91.60
8132;DHT22;4107;49.212;9.198;2022-07-01T17:53:31;23.00;92.50
8132;DHT22;4107;49.212;9.198;2022-07-01T17:55:58;23.10;92.30
8132;DHT22;4107;49.212;9.198;2022-07-01T17:58:23;23.10;92.20
8132;DHT22;4107;49.212;9.198;2022-07-01T18:00:51;23.00;92.90
8132;DHT22;4107;49.212;9.198;2022-07-01T18:03:23;23.10;92.40
8132;DHT22;4107;49.212;9.198;2022-07-01T18:05:49;23.10;92.20
8132;DHT22;4107;49.212;9.198;2022-07-01T18:08:16;23.10;91.80
8132;DHT22;4107;49.212;9.198;2022-07-01T18:10:49;23.10;92.50
8132;DHT22;4107;49.212;9.198;2022-07-01T18:16:09;23.20;92.40
8132;DHT22;4107;49.212;9.198;2022-07-01T18:18:42;23.20;91.90
8132;DHT22;4107;49.212;9.198;2022-07-01T18:21:20;23.20;92.10
8132;DHT22;4107;49.212;9.198;2022-07-01T18:23:51;23.10;91.60
8132;DHT22;4107;49.212;9.198;2022-07-01T18:26:18;23.00;91.90
8132;DHT22;4107;49.212;9.198;2022-07-01T18:28:44;22.90;92.10
8132;DHT22;4107;49.212;9.198;2022-07-01T18:31:15;22.80;92.30
8132;DHT22;4107;49.212;9.198;2022-07-01T18:33:55;22.60;92.40
8132;DHT22;4107;49.212;9.198;2022-07-01T18:36:39;22.50;92.30
8132;DHT22;4107;49.212;9.198;2022-07-01T18:39:05;22.40;92.50
8132;DHT22;4107;49.212;9.198;2022-07-01T18:41:31;22.30;92.40
8132;DHT22;4107;49.212;9.198;2022-07-01T18:43:57;22.20;92.40
8132;DHT22;4107;49.212;9.198;2022-07-01T18:46:28;22.20;92.70
8132;DHT22;4107;49.212;9.198;2022-07-01T18:48:53;22.10;92.90
8132;DHT22;4107;49.212;9.198;2022-07-01T18:51:19;22.00;92.60
8132;DHT22;4107;49.212;9.198;2022-07-01T18:53:44;22.00;93.10
8132;DHT22;4107;49.212;9.198;2022-07-01T18:56:10;21.90;92.70
8132;DHT22;4107;49.212;9.198;2022-07-01T18:58:36;21.90;93.40
8132;DHT22;4107;49.212;9.198;2022-07-01T19:01:01;21.80;93.60
8132;DHT22;4107;49.212;9.198;2022-07-01T19:03:30;21.80;93.50
8132;DHT22;4107;49.212;9.198;2022-07-01T19:05:59;21.70;93.80
8132;DHT22;4107;49.212;9.198;2022-07-01T19:08:26;21.70;94.00
8132;DHT22;4107;49.212;9.198;2022-07-01T19:10:51;21.60;93.90
8132;DHT22;4107;49.212;9.198;2022-07-01T19:13:17;21.50;94.40
8132;DHT22;4107;49.212;9.198;2022-07-01T19:15:47;21.40;94.50
8132;DHT22;4107;49.212;9.198;2022-07-01T19:18:13;21.40;94.90
8132;DHT22;4107;49.212;9.198;2022-07-01T19:20:38;21.30;94.80
8132;DHT22;4107;49.212;9.198;2022-07-01T19:23:14;21.30;94.60
8132;DHT22;4107;49.212;9.198;2022-07-01T19:25:40;21.10;94.30
8132;DHT22;4107;49.212;9.198;2022-07-01T19:28:06;21.10;94.50
8132;DHT22;4107;49.212;9.198;2022-07-01T19:30:33;21.00;95.20
8132;DHT22;4107;49.212;9.198;2022-07-01T19:32:58;20.90;95.30
8132;DHT22;4107;49.212;9.198;2022-07-01T19:35:24;20.90;95.50
8132;DHT22;4107;49.212;9.198;2022-07-01T19:37:53;20.80;95.90
8132;DHT22;4107;49.212;9.198;2022-07-01T19:40:23;20.80;95.90
8132;DHT22;4107;49.212;9.198;2022-07-01T19:42:49;20.70;96.00
8132;DHT22;4107;49.212;9.198;2022-07-01T19:45:15;20.70;96.40
8132;DHT22;4107;49.212;9.198;2022-07-01T19:47:41;20.70;96.40
8132;DHT22;4107;49.212;9.198;2022-07-01T19:50:07;20.60;96.70
8132;DHT22;4107;49.212;9.198;2022-07-01T19:52:33;20.50;97.00
8132;DHT22;4107;49.212;9.198;2022-07-01T19:54:58;20.50;99.90
8132;DHT22;4107;49.212;9.198;2022-07-01T19:57:24;20.50;99.90
8132;DHT22;4107;49.212;9.198;2022-07-01T19:59:50;20.80;99.90
8132;DHT22;4107;49.212;9.198;2022-07-01T20:02:16;20.60;99.90
8132;DHT22;4107;49.212;9.198;2022-07-01T20:04:41;20.30;99.90
8132;DHT22;4107;49.212;9.198;2022-07-01T20:07:09;20.30;99.90
8132;DHT22;4107;49.212;9.198;2022-07-01T20:09:35;20.40;99.90
8132;DHT22;4107;49.212;9.198;2022-07-01T20:43:51;19.70;99.90
8132;DHT22;4107;49.212;9.198;2022-07-01T20:46:17;19.40;99.90
8132;DHT22;4107;49.212;9.198;2022-07-01T20:48:42;19.40;99.90
8132;DHT22;4107;49.212;9.198;2022-07-01T20:51:10;19.30;99.90
8132;DHT22;4107;49.212;9.198;2022-07-01T20:53:35;19.30;99.90
8132;DHT22;4107;49.212;9.198;2022-07-01T20:56:01;19.20;99.90
8132;DHT22;4107;49.212;9.198;2022-07-01T20:58:27;19.20;99.90
8132;DHT22;4107;49.212;9.198;2022-07-01T21:00:52;19.20;99.90
8132;DHT22;4107;49.212;9.198;2022-07-01T21:03:18;19.10;99.90
8132;DHT22;4107;49.212;9.198;2022-07-01T21:05:46;19.10;99.90
8132;DHT22;4107;49.212;9.198;2022-07-01T21:08:12;19.10;99.90
8132;DHT22;4107;49.212;9.198;2022-07-01T21:10:37;19.10;99.90
8132;DHT22;4107;49.212;9.198;2022-07-01T21:13:03;19.00;99.90
8132;DHT22;4107;49.212;9.198;2022-07-01T21:15:29;18.90;99.90
8132;DHT22;4107;49.212;9.198;2022-07-01T21:17:54;18.90;99.90
8132;DHT22;4107;49.212;9.198;2022-07-01T21:20:20;18.90;99.90
8132;DHT22;4107;49.212;9.198;2022-07-01T21:22:47;18.90;99.90
8132;DHT22;4107;49.212;9.198;2022-07-01T21:25:12;18.80;99.90
8132;DHT22;4107;49.212;9.198;2022-07-01T21:27:39;18.80;99.90
8132;DHT22;4107;49.212;9.198;2022-07-01T21:30:05;18.70;99.90
8132;DHT22;4107;49.212;9.198;2022-07-01T21:32:31;18.70;99.90
8132;DHT22;4107;49.212;9.198;2022-07-01T21:34:57;18.70;99.90
8132;DHT22;4107;49.212;9.198;2022-07-01T21:37:23;18.70;99.90
8132;DHT22;4107;49.212;9.198;2022-07-01T21:39:52;18.60;99.90
8132;DHT22;4107;49.212;9.198;2022-07-01T21:42:18;18.60;99.90
8132;DHT22;4107;49.212;9.198;2022-07-01T21:44:44;18.60;99.90